createdAt,value
2019-05-22T00:02:06.158Z,23.55
2019-05-22T00:04:39.720Z,21.12
2019-05-22T00:07:11.617Z,24.60
2019-05-22T00:09:42.311Z,25.65
2019-05-22T00:12:21.356Z,24.80
2019-05-22T00:14:52.822Z,21.23
2019-05-22T00:17:30.739Z,23.35
2019-05-22T00:20:03.348Z,23.95
2019-05-22T00:22:35.755Z,22.40
2019-05-22T00:25:07.583Z,22.85
2019-05-22T00:27:37.962Z,26.05
2019-05-22T00:30:10.032Z,24.20
2019-05-22T00:32:39.386Z,26.65
2019-05-22T00:35:10.380Z,24.87
2019-05-22T00:37:40.389Z,22.22
2019-05-22T00:40:12.079Z,23.47
2019-05-22T00:42:45.215Z,22.65
2019-05-22T00:45:17.913Z,22.25
2019-05-22T00:47:49.443Z,22.95
2019-05-22T00:50:24.886Z,23.30
2019-05-22T00:53:22.350Z,25.10
2019-05-22T00:56:13.909Z,24.15
2019-05-22T00:58:50.336Z,26.30
2019-05-22T01:01:26.628Z,23.55
2019-05-22T01:03:58.421Z,25.97
2019-05-22T01:06:30.310Z,22.17
2019-05-22T01:09:02.897Z,24.15
2019-05-22T01:11:34.148Z,23.40
2019-05-22T01:14:04.815Z,26.55
2019-05-22T01:16:34.110Z,28.42
2019-05-22T01:19:06.082Z,24.98
2019-05-22T01:21:37.631Z,27.93
2019-05-22T01:24:08.447Z,27.48
2019-05-22T01:26:39.315Z,28.23
2019-05-22T01:29:09.077Z,25.50
2019-05-22T01:31:44.287Z,29.40
2019-05-22T01:34:19.035Z,29.15
2019-05-22T01:37:01.631Z,25.85
2019-05-22T01:39:51.920Z,23.57
2019-05-22T01:42:28.281Z,26.48
2019-05-22T01:45:05.793Z,27.50
2019-05-22T01:48:02.627Z,27.10
2019-05-22T01:50:50.900Z,26.20
2019-05-22T01:53:23.956Z,28.70
2019-05-22T01:56:06.489Z,27.35
2019-05-22T01:58:37.524Z,25.95
2019-05-22T02:01:19.922Z,25.17
2019-05-22T02:03:50.806Z,27.27
2019-05-22T02:06:23.202Z,29.40
2019-05-22T02:08:57.153Z,24.47
2019-05-22T02:11:28.435Z,23.47
2019-05-22T02:14:06.312Z,27.50
2019-05-22T02:16:36.625Z,25.80
2019-05-22T02:19:06.423Z,19.80
2019-05-22T02:21:35.875Z,26.52
2019-05-22T02:24:06.391Z,24.57
2019-05-22T02:26:37.052Z,24.82
2019-05-22T02:29:08.440Z,27.20
2019-05-22T02:31:39.410Z,22.65
2019-05-22T02:34:09.414Z,25.35
2019-05-22T02:36:40.639Z,24.47
2019-05-22T02:39:15.780Z,25.88
2019-05-22T02:41:48.639Z,25.45
2019-05-22T02:44:19.247Z,23.55
2019-05-22T02:46:48.960Z,23.57
2019-05-22T02:49:18.362Z,26.57
2019-05-22T02:51:48.601Z,25.30
2019-05-22T02:54:19.250Z,26.20
2019-05-22T02:56:48.826Z,21.48
2019-05-22T02:59:19.690Z,22.62
2019-05-22T03:01:49.749Z,21.23
2019-05-22T03:04:21.229Z,20.00
2019-05-22T03:06:53.120Z,18.37
2019-05-22T03:09:25.638Z,19.85
2019-05-22T03:12:03.475Z,19.20
2019-05-22T03:14:35.117Z,19.15
2019-05-22T03:17:07.832Z,17.17
2019-05-22T03:19:45.149Z,17.57
2019-05-22T03:22:25.124Z,18.45
2019-05-22T03:24:56.719Z,18.20
2019-05-22T03:27:39.005Z,16.65
2019-05-22T03:30:13.991Z,19.52
2019-05-22T03:32:44.708Z,18.90
2019-05-22T03:35:14.231Z,18.02
2019-05-22T03:37:44.019Z,19.43
2019-05-22T03:40:14.021Z,18.50
2019-05-22T03:42:43.906Z,20.43
2019-05-22T03:45:14.535Z,19.07
2019-05-22T03:47:45.193Z,20.40
2019-05-22T03:50:15.475Z,18.62
2019-05-22T03:52:44.769Z,17.73
2019-05-22T03:55:16.181Z,20.70
2019-05-22T03:57:45.841Z,19.10
2019-05-22T04:00:19.701Z,15.75
2019-05-22T04:02:51.776Z,18.47
2019-05-22T04:05:23.092Z,16.42
2019-05-22T04:07:54.514Z,15.03
2019-05-22T04:10:25.913Z,16.60
2019-05-22T04:12:56.491Z,17.02
2019-05-22T04:15:26.683Z,14.47
2019-05-22T04:17:59.077Z,17.20
2019-05-22T04:20:29.644Z,16.45
2019-05-22T04:23:00.851Z,13.40
2019-05-22T04:25:30.931Z,15.55
2019-05-22T04:28:00.704Z,13.20
2019-05-22T04:30:30.015Z,16.10
2019-05-22T04:32:59.486Z,14.38
2019-05-22T04:35:29.104Z,13.17
2019-05-22T04:37:58.761Z,13.77
2019-05-22T04:40:54.317Z,14.03
2019-05-22T04:43:27.364Z,12.17
2019-05-22T04:45:58.233Z,11.80
2019-05-22T04:48:29.312Z,11.80
2019-05-22T04:51:02.175Z,11.93
2019-05-22T04:53:31.769Z,14.00
2019-05-22T04:56:01.185Z,11.65
2019-05-22T04:58:31.266Z,11.60
2019-05-22T05:01:01.024Z,11.28
2019-05-22T05:03:31.078Z,12.73
2019-05-22T05:06:00.661Z,14.35
2019-05-22T05:08:30.629Z,11.70
2019-05-22T05:11:02.818Z,13.58
2019-05-22T05:13:32.513Z,12.43
2019-05-22T05:16:02.494Z,13.20
2019-05-22T05:18:32.685Z,13.32
2019-05-22T05:21:02.051Z,14.47
2019-05-22T05:23:31.508Z,13.87
2019-05-22T05:26:01.240Z,12.23
2019-05-22T05:28:30.775Z,15.75
2019-05-22T05:31:00.167Z,13.40
2019-05-22T05:33:30.230Z,14.95
2019-05-22T05:35:59.730Z,17.07
2019-05-22T05:38:35.995Z,15.70
2019-05-22T05:41:05.712Z,16.35
2019-05-22T05:43:35.468Z,16.70
2019-05-22T05:46:05.525Z,14.77
2019-05-22T05:48:35.998Z,14.58
2019-05-22T05:51:43.084Z,13.00
2019-05-22T05:54:23.417Z,15.07
2019-05-22T05:56:55.238Z,16.00
2019-05-22T05:59:26.458Z,13.23
2019-05-22T06:01:56.530Z,16.37
2019-05-22T06:04:34.699Z,12.43
2019-05-22T06:07:24.232Z,12.23
2019-05-22T06:10:33.588Z,13.18
2019-05-22T06:13:05.872Z,13.60
2019-05-22T06:16:09.123Z,12.93
2019-05-22T06:18:40.004Z,14.13
2019-05-22T06:21:09.898Z,15.30
2019-05-22T06:24:36.569Z,12.00
2019-05-22T06:27:19.045Z,14.37
2019-05-22T06:29:57.238Z,11.48
2019-05-22T06:32:54.708Z,12.70
2019-05-22T06:35:26.873Z,11.55
2019-05-22T06:38:34.128Z,14.90
2019-05-22T06:41:03.545Z,13.25
2019-05-22T06:44:38.935Z,13.22
2019-05-22T06:47:11.384Z,13.68
2019-05-22T06:49:45.296Z,12.10
2019-05-22T06:52:15.522Z,12.00
2019-05-22T06:54:45.485Z,11.90
2019-05-22T06:57:34.393Z,10.00
2019-05-22T07:00:18.027Z,9.48
2019-05-22T07:02:48.028Z,10.55
2019-05-22T07:05:17.991Z,8.23
2019-05-22T07:07:47.881Z,9.70
2019-05-22T07:10:17.348Z,10.20
2019-05-22T07:12:50.561Z,10.23
2019-05-22T07:15:33.310Z,8.80
2019-05-22T07:18:03.061Z,8.78
2019-05-22T07:20:35.748Z,10.58
2019-05-22T07:23:06.956Z,8.98
2019-05-22T07:25:39.762Z,9.98
2019-05-22T07:28:10.239Z,10.28
2019-05-22T07:30:42.180Z,10.20
2019-05-22T07:33:12.275Z,10.30
2019-05-22T07:36:04.620Z,11.10
2019-05-22T07:38:14.765Z,12.63
2019-05-22T07:40:49.662Z,12.15
2019-05-22T07:43:17.035Z,12.93
2019-05-22T07:45:46.592Z,12.73
2019-05-22T07:48:17.341Z,11.80
2019-05-22T07:50:50.088Z,10.80
2019-05-22T07:53:19.531Z,9.10
2019-05-22T07:55:52.478Z,9.28
2019-05-22T07:58:22.718Z,9.75
2019-05-22T08:00:55.738Z,8.53
2019-05-22T08:03:25.577Z,8.98
2019-05-22T08:05:56.778Z,10.00
2019-05-22T08:08:27.610Z,9.93
2019-05-22T08:10:59.147Z,10.65
2019-05-22T08:13:30.565Z,7.53
2019-05-22T08:15:59.936Z,8.33
2019-05-22T08:18:32.565Z,7.85
2019-05-22T08:21:02.394Z,8.38
2019-05-22T08:23:32.243Z,9.28
2019-05-22T08:26:01.588Z,8.33
2019-05-22T08:28:33.061Z,7.50
2019-05-22T08:31:04.131Z,7.67
2019-05-22T08:33:35.235Z,7.35
2019-05-22T08:36:05.135Z,6.60
2019-05-22T08:38:35.963Z,7.95
2019-05-22T08:41:08.272Z,7.17
2019-05-22T08:44:03.101Z,7.10
2019-05-22T08:46:10.110Z,8.30
2019-05-22T08:48:47.436Z,5.90
2019-05-22T08:51:13.628Z,8.45
2019-05-22T08:53:48.357Z,6.75
2019-05-22T08:56:18.639Z,8.18
2019-05-22T08:58:48.740Z,7.05
2019-05-22T09:01:18.066Z,8.15
2019-05-22T09:03:47.964Z,7.60
2019-05-22T09:06:17.456Z,5.87
2019-05-22T09:08:47.043Z,6.05
2019-05-22T09:11:16.430Z,5.78
2019-05-22T09:13:45.907Z,5.55
2019-05-22T09:16:16.725Z,5.78
2019-05-22T09:18:46.188Z,6.20
2019-05-22T09:21:16.504Z,5.50
2019-05-22T09:23:48.244Z,5.45
2019-05-22T09:26:18.364Z,5.25
2019-05-22T09:28:47.846Z,5.37
2019-05-22T09:31:17.883Z,5.28
2019-05-22T09:33:47.505Z,5.90
2019-05-22T09:36:17.212Z,6.25
2019-05-22T09:38:46.970Z,5.70
2019-05-22T09:41:16.445Z,5.83
2019-05-22T09:43:46.011Z,5.45
2019-05-22T09:46:17.946Z,5.70
2019-05-22T09:48:47.583Z,5.55
2019-05-22T09:51:17.043Z,5.62
2019-05-22T09:53:46.312Z,6.30
2019-05-22T09:56:15.906Z,5.90
2019-05-22T09:58:45.883Z,5.35
2019-05-22T10:01:15.315Z,5.30
2019-05-22T10:03:45.089Z,5.12
2019-05-22T10:06:14.553Z,5.55
2019-05-22T10:08:43.929Z,4.00
2019-05-22T10:11:14.112Z,5.67
2019-05-22T10:13:43.669Z,4.08
2019-05-22T10:16:13.536Z,4.47
2019-05-22T10:18:42.950Z,4.67
2019-05-22T10:21:13.066Z,5.10
2019-05-22T10:23:43.787Z,5.17
2019-05-22T10:26:13.590Z,5.33
2019-05-22T10:28:43.951Z,5.65
2019-05-22T10:31:16.153Z,5.45
2019-05-22T10:33:44.929Z,4.85
2019-05-22T10:36:15.620Z,5.33
2019-05-22T10:38:45.103Z,4.87
2019-05-22T10:41:15.885Z,5.37
2019-05-22T10:43:45.821Z,5.75
2019-05-22T10:46:15.306Z,5.80
2019-05-22T10:48:45.489Z,5.75
2019-05-22T10:51:14.874Z,4.67
2019-05-22T10:53:44.427Z,4.65
2019-05-22T10:56:14.902Z,4.50
2019-05-22T10:58:44.275Z,4.67
2019-05-22T11:01:14.625Z,4.40
2019-05-22T11:03:43.964Z,4.80
2019-05-22T11:06:14.484Z,4.50
2019-05-22T11:08:43.866Z,5.20
2019-05-22T11:11:14.233Z,4.20
2019-05-22T11:13:59.836Z,4.30
2019-05-22T11:16:15.581Z,4.53
2019-05-22T11:18:45.560Z,4.65
2019-05-22T11:21:16.220Z,4.78
2019-05-22T11:23:52.082Z,4.10
2019-05-22T11:26:16.860Z,4.20
2019-05-22T11:28:46.563Z,4.37
2019-05-22T11:31:16.931Z,5.15
2019-05-22T11:33:46.948Z,4.20
2019-05-22T11:36:18.045Z,4.12
2019-05-22T11:38:47.436Z,4.00
2019-05-22T11:41:17.559Z,4.28
2019-05-22T11:43:46.948Z,4.37
2019-05-22T11:46:17.409Z,3.87
2019-05-22T11:48:46.867Z,3.90
2019-05-22T11:51:16.238Z,3.92
2019-05-22T11:53:45.601Z,4.12
2019-05-22T11:56:14.978Z,4.17
2019-05-22T11:58:47.890Z,3.85
2019-05-22T12:01:17.389Z,4.17
2019-05-22T12:03:47.619Z,4.25
2019-05-22T12:06:17.292Z,4.20
2019-05-22T12:08:48.583Z,3.83
2019-05-22T12:11:20.380Z,4.05
2019-05-22T12:13:49.918Z,4.25
2019-05-22T12:16:19.496Z,4.62
2019-05-22T12:18:49.756Z,4.20
2019-05-22T12:21:19.075Z,3.77
2019-05-22T12:23:48.584Z,3.33
2019-05-22T12:26:19.151Z,3.67
2019-05-22T12:28:48.621Z,4.40
2019-05-22T12:31:19.443Z,3.77
2019-05-22T12:33:49.617Z,4.03
2019-05-22T12:36:19.204Z,4.33
2019-05-22T12:38:48.559Z,4.53
2019-05-22T12:41:19.827Z,3.80
2019-05-22T12:43:49.200Z,4.15
2019-05-22T12:46:19.818Z,4.87
2019-05-22T12:48:49.630Z,3.83
2019-05-22T12:51:20.638Z,4.42
2019-05-22T12:53:50.130Z,3.70
2019-05-22T12:56:19.621Z,3.65
2019-05-22T12:58:49.363Z,4.03
2019-05-22T13:01:20.893Z,4.17
2019-05-22T13:03:51.222Z,3.12
2019-05-22T13:06:21.334Z,3.50
2019-05-22T13:08:50.727Z,3.83
2019-05-22T13:11:20.689Z,2.92
2019-05-22T13:13:50.196Z,3.02
2019-05-22T13:16:19.894Z,2.98
2019-05-22T13:18:50.436Z,3.55
2019-05-22T13:21:22.570Z,3.33
2019-05-22T13:23:53.348Z,2.60
2019-05-22T13:26:24.227Z,2.50
2019-05-22T13:28:54.770Z,3.52
2019-05-22T13:31:24.949Z,3.17
2019-05-22T13:33:55.092Z,3.00
2019-05-22T13:36:24.639Z,2.98
2019-05-22T13:38:54.028Z,3.55
2019-05-22T13:41:23.431Z,4.40
2019-05-22T13:43:54.036Z,3.25
2019-05-22T13:46:24.127Z,4.25
2019-05-22T13:48:53.524Z,4.30
2019-05-22T13:51:22.974Z,2.85
2019-05-22T13:53:53.777Z,3.27
2019-05-22T13:56:25.597Z,2.65
2019-05-22T13:58:56.198Z,2.90
2019-05-22T14:01:26.190Z,2.17
2019-05-22T14:03:55.500Z,2.17
2019-05-22T14:06:24.934Z,2.20
2019-05-22T14:08:54.336Z,2.22
2019-05-22T14:11:24.131Z,2.00
2019-05-22T14:13:54.020Z,2.37
2019-05-22T14:16:23.786Z,2.90
2019-05-22T14:18:53.139Z,3.10
2019-05-22T14:21:22.571Z,3.00
2019-05-22T14:23:52.069Z,2.87
2019-05-22T14:26:21.427Z,2.70
2019-05-22T14:28:51.127Z,3.42
2019-05-22T14:31:20.674Z,2.90
2019-05-22T14:33:50.692Z,2.65
2019-05-22T14:36:20.254Z,3.35
2019-05-22T14:38:53.508Z,2.70
2019-05-22T14:41:25.731Z,3.10
2019-05-22T14:43:55.091Z,3.33
2019-05-22T14:46:24.735Z,2.25
2019-05-22T14:48:54.864Z,2.80
2019-05-22T14:51:24.523Z,2.83
2019-05-22T14:53:56.340Z,3.37
2019-05-22T14:56:26.344Z,2.90
2019-05-22T14:58:55.741Z,3.75
2019-05-22T15:01:26.549Z,3.35
2019-05-22T15:03:56.133Z,3.65
2019-05-22T15:06:25.962Z,3.35
2019-05-22T15:08:55.342Z,3.25
2019-05-22T15:11:25.288Z,3.05
2019-05-22T15:13:56.380Z,3.52
2019-05-22T15:16:25.691Z,3.33
2019-05-22T15:18:55.067Z,2.65
2019-05-22T15:21:24.720Z,3.62
2019-05-22T15:23:55.221Z,2.70
2019-05-22T15:26:24.933Z,2.92
2019-05-22T15:28:54.222Z,2.98
2019-05-22T15:31:23.582Z,3.15
2019-05-22T15:33:53.044Z,2.85
2019-05-22T15:36:24.161Z,2.40
2019-05-22T15:38:56.482Z,2.20
2019-05-22T15:41:27.131Z,2.12
2019-05-22T15:43:57.874Z,2.45
2019-05-22T15:46:29.236Z,2.55
2019-05-22T15:49:00.369Z,2.12
2019-05-22T15:51:33.439Z,2.22
2019-05-22T15:54:04.488Z,2.10
2019-05-22T15:56:36.086Z,1.85
2019-05-22T15:59:07.516Z,2.10
2019-05-22T16:01:38.195Z,2.40
2019-05-22T16:04:10.943Z,2.00
2019-05-22T16:06:40.707Z,2.10
2019-05-22T16:09:14.074Z,1.90
2019-05-22T16:11:44.134Z,1.95
2019-05-22T16:14:15.975Z,2.75
2019-05-22T16:16:49.222Z,1.90
2019-05-22T16:19:19.909Z,1.77
2019-05-22T16:21:51.317Z,1.70
2019-05-22T16:24:20.705Z,1.82
2019-05-22T16:26:49.998Z,1.80
2019-05-22T16:29:19.663Z,1.70
2019-05-22T16:31:53.881Z,2.20
2019-05-22T16:34:23.196Z,1.72
2019-05-22T16:36:53.078Z,1.70
2019-05-22T16:39:23.831Z,1.67
2019-05-22T16:41:53.543Z,1.70
2019-05-22T16:44:23.321Z,1.52
2019-05-22T16:46:53.468Z,1.27
2019-05-22T16:49:23.032Z,1.82
2019-05-22T16:51:52.591Z,1.62
2019-05-22T16:54:22.386Z,2.10
2019-05-22T16:56:53.011Z,1.60
2019-05-22T16:59:22.771Z,1.65
2019-05-22T17:01:59.200Z,1.80
2019-05-22T17:04:24.194Z,1.22
2019-05-22T17:06:53.674Z,1.30
2019-05-22T17:09:24.691Z,1.42
2019-05-22T17:11:54.789Z,1.57
2019-05-22T17:14:25.031Z,1.40
2019-05-22T17:16:54.880Z,1.02
2019-05-22T17:19:27.641Z,1.20
2019-05-22T17:21:55.803Z,1.10
2019-05-22T17:24:26.835Z,1.10
2019-05-22T17:26:57.400Z,1.20
2019-05-22T17:29:27.247Z,1.25
2019-05-22T17:31:57.351Z,1.35
2019-05-22T17:34:33.975Z,1.27
2019-05-22T17:37:11.593Z,1.37
2019-05-22T17:39:44.273Z,0.90
2019-05-22T17:42:15.893Z,1.02
2019-05-22T17:44:49.795Z,1.12
2019-05-22T17:47:24.252Z,0.90
2019-05-22T17:49:54.598Z,1.17
2019-05-22T17:52:24.452Z,1.00
2019-05-22T17:54:55.507Z,1.17
2019-05-22T17:57:25.283Z,0.90
2019-05-22T17:59:55.718Z,1.12
2019-05-22T18:02:29.756Z,0.93
2019-05-22T18:04:59.455Z,1.07
2019-05-22T18:07:29.456Z,1.17
2019-05-22T18:09:59.372Z,0.90
2019-05-22T18:12:28.748Z,1.00
2019-05-22T18:14:58.110Z,1.10
2019-05-22T18:17:28.144Z,1.30
2019-05-22T18:19:57.507Z,1.00
2019-05-22T18:22:27.018Z,0.88
2019-05-22T18:24:56.444Z,1.10
2019-05-22T18:27:26.175Z,0.90
2019-05-22T18:29:55.527Z,1.12
2019-05-22T18:32:24.913Z,1.10
2019-05-22T18:34:54.267Z,0.93
2019-05-22T18:37:23.602Z,0.95
2019-05-22T18:39:53.211Z,0.80
2019-05-22T18:42:24.197Z,1.02
2019-05-22T18:44:53.576Z,1.02
2019-05-22T18:47:23.693Z,1.17
2019-05-22T18:49:53.494Z,0.80
2019-05-22T18:52:38.288Z,1.00
2019-05-22T18:54:54.091Z,1.10
2019-05-22T18:57:28.248Z,1.10
2019-05-22T19:00:02.789Z,1.10
2019-05-22T19:02:28.455Z,1.15
2019-05-22T19:04:57.825Z,1.20
2019-05-22T19:07:27.126Z,0.95
2019-05-22T19:09:56.446Z,1.10
2019-05-22T19:12:25.796Z,1.07
2019-05-22T19:14:55.215Z,1.05
2019-05-22T19:17:26.559Z,1.02
2019-05-22T19:19:56.551Z,0.98
2019-05-22T19:22:26.580Z,0.95
2019-05-22T19:24:55.964Z,1.02
2019-05-22T19:27:28.060Z,1.00
2019-05-22T19:29:57.391Z,1.02
2019-05-22T19:32:26.872Z,1.17
2019-05-22T19:34:56.271Z,1.00
2019-05-22T19:37:25.738Z,1.10
2019-05-22T19:39:55.541Z,1.00
2019-05-22T19:42:24.938Z,1.10
2019-05-22T19:44:54.356Z,1.12
2019-05-22T19:47:24.872Z,0.88
2019-05-22T19:49:54.260Z,1.07
2019-05-22T19:52:39.026Z,1.32
2019-05-22T19:55:00.307Z,1.02
2019-05-22T19:57:30.331Z,1.12
2019-05-22T19:59:59.637Z,1.65
2019-05-22T20:02:29.818Z,1.42
2019-05-22T20:04:59.372Z,1.40
2019-05-22T20:07:29.148Z,1.95
2019-05-22T20:09:58.659Z,1.82
2019-05-22T20:12:29.361Z,1.80
2019-05-22T20:14:58.949Z,1.72
2019-05-22T20:17:28.716Z,1.40
2019-05-22T20:19:57.973Z,1.40
2019-05-22T20:22:27.251Z,1.95
2019-05-22T20:24:56.591Z,2.00
2019-05-22T20:27:26.085Z,1.82
2019-05-22T20:29:55.663Z,1.60
2019-05-22T20:32:26.054Z,1.92
2019-05-22T20:34:55.763Z,2.35
2019-05-22T20:37:25.458Z,2.12
2019-05-22T20:39:54.807Z,1.80
2019-05-22T20:42:24.612Z,1.60
2019-05-22T20:44:54.083Z,1.57
2019-05-22T20:47:25.290Z,1.22
2019-05-22T20:49:55.100Z,1.60
2019-05-22T20:52:27.014Z,1.30
2019-05-22T20:54:57.773Z,1.12
2019-05-22T20:57:28.226Z,1.30
2019-05-22T20:59:59.541Z,1.35
2019-05-22T21:02:29.909Z,1.75
2019-05-22T21:04:59.532Z,1.75
2019-05-22T21:07:36.893Z,1.40
2019-05-22T21:10:08.035Z,1.35
2019-05-22T21:12:39.292Z,1.40
2019-05-22T21:15:08.674Z,2.08
2019-05-22T21:17:38.305Z,2.27
2019-05-22T21:20:08.653Z,2.50
2019-05-22T21:22:38.776Z,2.70
2019-05-22T21:25:08.796Z,2.52
2019-05-22T21:27:38.519Z,2.17
2019-05-22T21:30:10.072Z,2.30
2019-05-22T21:32:40.519Z,2.57
2019-05-22T21:35:10.278Z,2.60
2019-05-22T21:37:41.153Z,2.23
2019-05-22T21:40:12.181Z,2.40
2019-05-22T21:42:41.836Z,2.87
2019-05-22T21:45:13.008Z,2.83
2019-05-22T21:47:43.481Z,3.50
2019-05-22T21:50:12.871Z,4.43
2019-05-22T21:52:43.262Z,3.27
2019-05-22T21:55:13.700Z,4.03
2019-05-22T21:57:44.659Z,3.90
2019-05-22T22:00:21.982Z,3.83
2019-05-22T22:02:52.339Z,3.80
2019-05-22T22:05:22.399Z,4.40
2019-05-22T22:07:51.759Z,3.83
2019-05-22T22:10:21.614Z,3.50
2019-05-22T22:12:52.276Z,3.10
2019-05-22T22:15:22.351Z,3.60
2019-05-22T22:17:51.938Z,3.07
2019-05-22T22:20:22.208Z,3.20
2019-05-22T22:22:52.002Z,3.50
2019-05-22T22:25:23.797Z,2.70
2019-05-22T22:27:53.363Z,3.10
2019-05-22T22:30:29.848Z,2.20
2019-05-22T22:33:04.246Z,3.37
2019-05-22T22:35:34.256Z,2.60
2019-05-22T22:38:04.840Z,2.80
2019-05-22T22:40:34.123Z,2.83
2019-05-22T22:43:06.163Z,2.83
2019-05-22T22:45:53.617Z,3.00
2019-05-22T22:48:26.100Z,3.17
2019-05-22T22:50:55.624Z,2.67
2019-05-22T22:53:25.512Z,3.03
2019-05-22T22:55:55.383Z,2.80
2019-05-22T22:58:24.774Z,2.83
2019-05-22T23:00:56.096Z,2.50
2019-05-22T23:03:27.853Z,2.47
2019-05-22T23:05:58.546Z,3.10
2019-05-22T23:08:31.294Z,2.60
2019-05-22T23:11:01.411Z,2.10
2019-05-22T23:13:32.056Z,2.60
2019-05-22T23:16:02.042Z,2.13
2019-05-22T23:19:15.901Z,2.30
2019-05-22T23:21:45.429Z,2.27
2019-05-22T23:24:15.925Z,2.80
2019-05-22T23:26:47.403Z,2.63
2019-05-22T23:29:19.614Z,2.50
2019-05-22T23:31:49.699Z,2.87
2019-05-22T23:34:19.680Z,2.40
2019-05-22T23:36:49.577Z,3.00
2019-05-22T23:39:21.666Z,2.77
2019-05-22T23:41:56.249Z,2.20
2019-05-22T23:44:25.206Z,2.33
2019-05-22T23:46:56.074Z,2.70
2019-05-22T23:49:26.156Z,2.40
2019-05-22T23:51:55.616Z,2.47
2019-05-22T23:54:25.894Z,2.27
2019-05-22T23:56:55.755Z,2.17
2019-05-22T23:59:25.111Z,2.50
